Terminal Aerodrome Forecast
Issued by NWS

Home | Current Version | Previous Version | Graphics & Text | Print | Product List | Glossary On
Versions: 1 2 3 4 5 6 7 8 9 10 11 12 13 14
845
FTUS43 KOAX 292321
TAFCDR
TAF
KCDR 292321Z 3000/3024 05009KT P6SM OVC025
      TEMPO 3000/3004 4SM -RA BR OVC015
     FM300600 05008KT 3/4SM -SNRA BR OVC009
     FM301500 02015KT 3SM -SNRA BR OVC015
     FM302000 03012KT 5SM -SNRA BR OVC015=

USA.gov is the U.S. government's official web portal to all federal, state and local government web resources and services.